sensor_id;sensor_type;location;lat;lon;timestamp;pressure;altitude;pressure_sealevel;temperature;humidity
7297;BME280;40758;54.038;11.684;2022-11-15T00:02:12;101091.13;;;2.91;100.00
7297;BME280;40758;54.038;11.684;2022-11-15T00:04:41;101089.41;;;2.90;100.00
7297;BME280;40758;54.038;11.684;2022-11-15T00:07:10;101090.50;;;2.86;100.00
7297;BME280;40758;54.038;11.684;2022-11-15T00:10:00;101090.72;;;3.00;100.00
7297;BME280;40758;54.038;11.684;2022-11-15T00:12:30;101088.00;;;3.02;100.00
7297;BME280;40758;54.038;11.684;2022-11-15T00:15:02;101075.66;;;3.01;100.00
7297;BME280;40758;54.038;11.684;2022-11-15T00:17:31;101074.94;;;3.16;100.00
7297;BME280;40758;54.038;11.684;2022-11-15T00:20:05;101067.47;;;3.24;100.00
7297;BME280;40758;54.038;11.684;2022-11-15T00:22:36;101070.25;;;3.21;100.00
7297;BME280;40758;54.038;11.684;2022-11-15T00:25:06;101066.91;;;3.17;100.00
7297;BME280;40758;54.038;11.684;2022-11-15T00:27:37;101067.91;;;3.15;100.00
7297;BME280;40758;54.038;11.684;2022-11-15T00:30:08;101053.69;;;3.16;100.00
7297;BME280;40758;54.038;11.684;2022-11-15T00:32:38;101058.72;;;3.22;100.00
7297;BME280;40758;54.038;11.684;2022-11-15T00:35:08;101050.63;;;3.25;100.00
7297;BME280;40758;54.038;11.684;2022-11-15T00:37:37;101055.00;;;3.26;100.00
7297;BME280;40758;54.038;11.684;2022-11-15T00:40:10;101059.22;;;3.30;100.00
7297;BME280;40758;54.038;11.684;2022-11-15T00:42:42;101051.19;;;3.32;100.00
7297;BME280;40758;54.038;11.684;2022-11-15T00:45:11;101052.19;;;3.29;100.00
7297;BME280;40758;54.038;11.684;2022-11-15T00:47:40;101049.09;;;3.38;100.00
7297;BME280;40758;54.038;11.684;2022-11-15T00:50:12;101054.81;;;3.48;100.00
7297;BME280;40758;54.038;11.684;2022-11-15T00:52:42;101042.56;;;3.45;100.00
7297;BME280;40758;54.038;11.684;2022-11-15T00:55:14;101058.50;;;3.45;100.00
7297;BME280;40758;54.038;11.684;2022-11-15T00:57:46;101064.72;;;3.44;100.00
7297;BME280;40758;54.038;11.684;2022-11-15T01:00:16;101052.16;;;3.48;100.00
7297;BME280;40758;54.038;11.684;2022-11-15T01:02:45;101045.75;;;3.52;100.00
7297;BME280;40758;54.038;11.684;2022-11-15T01:05:15;101056.75;;;3.44;100.00
7297;BME280;40758;54.038;11.684;2022-11-15T01:07:44;101047.38;;;3.37;100.00
7297;BME280;40758;54.038;11.684;2022-11-15T01:10:14;101046.34;;;3.40;100.00
7297;BME280;40758;54.038;11.684;2022-11-15T01:12:53;101040.03;;;3.42;100.00
7297;BME280;40758;54.038;11.684;2022-11-15T01:15:23;101042.75;;;3.41;100.00
7297;BME280;40758;54.038;11.684;2022-11-15T01:17:52;101046.28;;;3.41;100.00
7297;BME280;40758;54.038;11.684;2022-11-15T01:20:23;101033.63;;;3.46;100.00
7297;BME280;40758;54.038;11.684;2022-11-15T01:22:53;101030.03;;;3.47;100.00
7297;BME280;40758;54.038;11.684;2022-11-15T01:25:22;101025.44;;;3.51;100.00
7297;BME280;40758;54.038;11.684;2022-11-15T01:27:53;101013.97;;;3.50;100.00
7297;BME280;40758;54.038;11.684;2022-11-15T01:30:22;101020.50;;;3.43;100.00
7297;BME280;40758;54.038;11.684;2022-11-15T01:32:52;101018.94;;;3.39;100.00
7297;BME280;40758;54.038;11.684;2022-11-15T01:35:21;101009.25;;;3.38;100.00
7297;BME280;40758;54.038;11.684;2022-11-15T01:37:53;101017.91;;;3.42;100.00
7297;BME280;40758;54.038;11.684;2022-11-15T01:40:23;101022.59;;;3.37;100.00
7297;BME280;40758;54.038;11.684;2022-11-15T01:42:54;101013.78;;;3.36;100.00
7297;BME280;40758;54.038;11.684;2022-11-15T01:45:23;101015.72;;;3.33;100.00
7297;BME280;40758;54.038;11.684;2022-11-15T01:47:54;101013.06;;;3.33;100.00
7297;BME280;40758;54.038;11.684;2022-11-15T01:50:29;101013.06;;;3.33;100.00
7297;BME280;40758;54.038;11.684;2022-11-15T01:53:00;101017.53;;;3.32;100.00
7297;BME280;40758;54.038;11.684;2022-11-15T01:55:30;101005.19;;;3.31;100.00
7297;BME280;40758;54.038;11.684;2022-11-15T01:58:04;101006.34;;;3.25;100.00
7297;BME280;40758;54.038;11.684;2022-11-15T02:00:38;101027.00;;;3.19;100.00
7297;BME280;40758;54.038;11.684;2022-11-15T02:03:08;101017.25;;;3.19;100.00
7297;BME280;40758;54.038;11.684;2022-11-15T02:05:38;101025.28;;;3.18;100.00
7297;BME280;40758;54.038;11.684;2022-11-15T02:08:09;101019.13;;;3.17;100.00
7297;BME280;40758;54.038;11.684;2022-11-15T02:10:47;101020.69;;;3.21;100.00
7297;BME280;40758;54.038;11.684;2022-11-15T02:13:19;101013.88;;;3.16;100.00
7297;BME280;40758;54.038;11.684;2022-11-15T02:16:00;101020.41;;;3.09;100.00
7297;BME280;40758;54.038;11.684;2022-11-15T02:18:37;101011.09;;;3.00;100.00
7297;BME280;40758;54.038;11.684;2022-11-15T02:21:25;101014.97;;;2.93;100.00
7297;BME280;40758;54.038;11.684;2022-11-15T02:24:25;101017.13;;;2.85;100.00
7297;BME280;40758;54.038;11.684;2022-11-15T02:27:42;101012.19;;;2.77;100.00
7297;BME280;40758;54.038;11.684;2022-11-15T02:30:29;101004.88;;;2.64;100.00
7297;BME280;40758;54.038;11.684;2022-11-15T02:33:14;101006.13;;;2.55;100.00
7297;BME280;40758;54.038;11.684;2022-11-15T02:35:57;101008.09;;;2.52;100.00
7297;BME280;40758;54.038;11.684;2022-11-15T02:38:38;100998.75;;;2.43;100.00
7297;BME280;40758;54.038;11.684;2022-11-15T02:41:15;101005.34;;;2.34;100.00
7297;BME280;40758;54.038;11.684;2022-11-15T02:43:49;100995.44;;;2.38;100.00
7297;BME280;40758;54.038;11.684;2022-11-15T02:46:34;100998.16;;;2.36;100.00
7297;BME280;40758;54.038;11.684;2022-11-15T02:49:24;100992.25;;;2.30;100.00
7297;BME280;40758;54.038;11.684;2022-11-15T02:51:56;100994.16;;;2.28;100.00
7297;BME280;40758;54.038;11.684;2022-11-15T02:54:32;100988.91;;;2.26;100.00
7297;BME280;40758;54.038;11.684;2022-11-15T02:57:05;100992.53;;;2.24;100.00
7297;BME280;40758;54.038;11.684;2022-11-15T03:00:01;100982.25;;;2.16;100.00
7297;BME280;40758;54.038;11.684;2022-11-15T03:02:47;100992.69;;;2.00;100.00
7297;BME280;40758;54.038;11.684;2022-11-15T03:05:30;100992.63;;;2.02;100.00
7297;BME280;40758;54.038;11.684;2022-11-15T03:08:10;100991.19;;;1.95;100.00
7297;BME280;40758;54.038;11.684;2022-11-15T03:11:03;100993.88;;;2.14;100.00
7297;BME280;40758;54.038;11.684;2022-11-15T03:13:45;101002.09;;;2.08;100.00
7297;BME280;40758;54.038;11.684;2022-11-15T03:16:33;101001.50;;;2.01;100.00
7297;BME280;40758;54.038;11.684;2022-11-15T03:19:13;100999.78;;;2.00;100.00
7297;BME280;40758;54.038;11.684;2022-11-15T03:21:44;100996.47;;;1.95;100.00
7297;BME280;40758;54.038;11.684;2022-11-15T03:24:17;101011.91;;;1.85;100.00
7297;BME280;40758;54.038;11.684;2022-11-15T03:26:54;100999.44;;;1.87;100.00
7297;BME280;40758;54.038;11.684;2022-11-15T03:29:31;101004.16;;;1.81;100.00
7297;BME280;40758;54.038;11.684;2022-11-15T03:32:11;101002.69;;;1.74;100.00
7297;BME280;40758;54.038;11.684;2022-11-15T03:34:49;100998.84;;;1.81;100.00
7297;BME280;40758;54.038;11.684;2022-11-15T03:37:26;101001.19;;;1.88;100.00
7297;BME280;40758;54.038;11.684;2022-11-15T03:39:59;101004.50;;;1.93;100.00
7297;BME280;40758;54.038;11.684;2022-11-15T03:42:38;101000.38;;;1.86;100.00
7297;BME280;40758;54.038;11.684;2022-11-15T03:45:16;101003.88;;;1.87;100.00
7297;BME280;40758;54.038;11.684;2022-11-15T03:47:57;101000.31;;;1.88;100.00
7297;BME280;40758;54.038;11.684;2022-11-15T03:50:30;101003.03;;;1.86;100.00
7297;BME280;40758;54.038;11.684;2022-11-15T03:52:59;100999.19;;;1.93;100.00
7297;BME280;40758;54.038;11.684;2022-11-15T03:55:32;100998.72;;;2.04;100.00
7297;BME280;40758;54.038;11.684;2022-11-15T03:58:02;100998.06;;;1.99;100.00
7297;BME280;40758;54.038;11.684;2022-11-15T04:00:33;100996.88;;;2.06;100.00
7297;BME280;40758;54.038;11.684;2022-11-15T04:03:02;100993.78;;;1.96;100.00
7297;BME280;40758;54.038;11.684;2022-11-15T04:05:33;100994.63;;;1.97;100.00
7297;BME280;40758;54.038;11.684;2022-11-15T04:08:03;100991.03;;;1.98;100.00
7297;BME280;40758;54.038;11.684;2022-11-15T04:10:33;100986.88;;;1.92;100.00
7297;BME280;40758;54.038;11.684;2022-11-15T04:13:03;100997.06;;;1.81;100.00
7297;BME280;40758;54.038;11.684;2022-11-15T04:15:33;101001.81;;;1.73;100.00
7297;BME280;40758;54.038;11.684;2022-11-15T04:18:04;100992.56;;;1.63;100.00
7297;BME280;40758;54.038;11.684;2022-11-15T04:20:36;100995.41;;;1.58;100.00
7297;BME280;40758;54.038;11.684;2022-11-15T04:23:24;100990.56;;;1.48;100.00
7297;BME280;40758;54.038;11.684;2022-11-15T04:26:16;100998.88;;;1.39;100.00
7297;BME280;40758;54.038;11.684;2022-11-15T04:28:46;100988.78;;;1.27;100.00
7297;BME280;40758;54.038;11.684;2022-11-15T04:31:28;100984.56;;;1.23;100.00
7297;BME280;40758;54.038;11.684;2022-11-15T04:33:58;100990.97;;;1.17;100.00
7297;BME280;40758;54.038;11.684;2022-11-15T04:36:30;100987.25;;;1.21;100.00
7297;BME280;40758;54.038;11.684;2022-11-15T04:39:17;100991.19;;;1.33;100.00
7297;BME280;40758;54.038;11.684;2022-11-15T04:41:47;100983.50;;;1.27;100.00
7297;BME280;40758;54.038;11.684;2022-11-15T04:44:16;100987.63;;;1.34;100.00
7297;BME280;40758;54.038;11.684;2022-11-15T04:46:48;100986.75;;;1.33;100.00
7297;BME280;40758;54.038;11.684;2022-11-15T04:49:18;100985.69;;;1.37;100.00
7297;BME280;40758;54.038;11.684;2022-11-15T04:51:49;100990.63;;;1.46;100.00
7297;BME280;40758;54.038;11.684;2022-11-15T04:54:19;100993.31;;;1.45;100.00
7297;BME280;40758;54.038;11.684;2022-11-15T04:56:48;100994.25;;;1.44;100.00
7297;BME280;40758;54.038;11.684;2022-11-15T04:59:17;100994.38;;;1.41;100.00
7297;BME280;40758;54.038;11.684;2022-11-15T05:01:46;100987.66;;;1.32;100.00
7297;BME280;40758;54.038;11.684;2022-11-15T05:04:15;100982.44;;;1.31;100.00
7297;BME280;40758;54.038;11.684;2022-11-15T05:06:51;100979.25;;;1.23;100.00
7297;BME280;40758;54.038;11.684;2022-11-15T05:09:21;100973.03;;;1.23;100.00
7297;BME280;40758;54.038;11.684;2022-11-15T05:11:51;100977.53;;;1.21;100.00
7297;BME280;40758;54.038;11.684;2022-11-15T05:14:23;100972.34;;;1.18;100.00
7297;BME280;40758;54.038;11.684;2022-11-15T05:16:54;100976.88;;;1.16;100.00
7297;BME280;40758;54.038;11.684;2022-11-15T05:19:26;100971.50;;;1.18;100.00
7297;BME280;40758;54.038;11.684;2022-11-15T05:21:57;100985.66;;;1.17;100.00
7297;BME280;40758;54.038;11.684;2022-11-15T05:24:26;100982.94;;;1.18;100.00
7297;BME280;40758;54.038;11.684;2022-11-15T05:26:56;100979.31;;;1.21;100.00
7297;BME280;40758;54.038;11.684;2022-11-15T05:29:25;100986.25;;;1.23;100.00
7297;BME280;40758;54.038;11.684;2022-11-15T05:31:54;100984.59;;;1.21;100.00
7297;BME280;40758;54.038;11.684;2022-11-15T05:34:25;100984.06;;;1.13;100.00
7297;BME280;40758;54.038;11.684;2022-11-15T05:36:57;100989.41;;;1.11;100.00
7297;BME280;40758;54.038;11.684;2022-11-15T05:39:27;100979.69;;;1.12;100.00
7297;BME280;40758;54.038;11.684;2022-11-15T05:42:02;100979.00;;;1.07;100.00
7297;BME280;40758;54.038;11.684;2022-11-15T05:44:39;100966.22;;;0.96;100.00
7297;BME280;40758;54.038;11.684;2022-11-15T05:47:16;100979.00;;;0.85;100.00
7297;BME280;40758;54.038;11.684;2022-11-15T05:49:48;100974.94;;;0.76;100.00
7297;BME280;40758;54.038;11.684;2022-11-15T05:52:25;100977.53;;;0.78;100.00
7297;BME280;40758;54.038;11.684;2022-11-15T05:55:00;100981.09;;;0.77;100.00
7297;BME280;40758;54.038;11.684;2022-11-15T05:57:30;100983.31;;;0.88;100.00
7297;BME280;40758;54.038;11.684;2022-11-15T06:00:00;100979.53;;;0.93;100.00
7297;BME280;40758;54.038;11.684;2022-11-15T06:02:30;100977.91;;;0.91;100.00
7297;BME280;40758;54.038;11.684;2022-11-15T06:05:00;100980.50;;;0.92;100.00
7297;BME280;40758;54.038;11.684;2022-11-15T06:07:31;100983.06;;;0.94;100.00
7297;BME280;40758;54.038;11.684;2022-11-15T06:10:01;100989.22;;;0.94;100.00
7297;BME280;40758;54.038;11.684;2022-11-15T06:12:31;100981.16;;;0.97;100.00
7297;BME280;40758;54.038;11.684;2022-11-15T06:15:00;100989.44;;;0.88;100.00
7297;BME280;40758;54.038;11.684;2022-11-15T06:17:32;100988.97;;;1.00;100.00
7297;BME280;40758;54.038;11.684;2022-11-15T06:20:01;100997.81;;;0.99;100.00
7297;BME280;40758;54.038;11.684;2022-11-15T06:22:32;101002.09;;;1.03;100.00
7297;BME280;40758;54.038;11.684;2022-11-15T06:25:03;101005.97;;;1.16;100.00
7297;BME280;40758;54.038;11.684;2022-11-15T06:27:33;101018.72;;;1.29;100.00
7297;BME280;40758;54.038;11.684;2022-11-15T06:30:03;101020.72;;;1.44;100.00
7297;BME280;40758;54.038;11.684;2022-11-15T06:32:32;101026.00;;;1.66;100.00
7297;BME280;40758;54.038;11.684;2022-11-15T06:35:02;101024.63;;;1.77;100.00
7297;BME280;40758;54.038;11.684;2022-11-15T06:37:34;101030.97;;;1.93;100.00
7297;BME280;40758;54.038;11.684;2022-11-15T06:40:04;101026.88;;;2.07;100.00
7297;BME280;40758;54.038;11.684;2022-11-15T06:42:33;101043.97;;;2.20;100.00
7297;BME280;40758;54.038;11.684;2022-11-15T06:45:04;101047.00;;;2.31;100.00
7297;BME280;40758;54.038;11.684;2022-11-15T06:47:44;101045.53;;;2.44;100.00
7297;BME280;40758;54.038;11.684;2022-11-15T06:50:16;101048.56;;;2.55;100.00
7297;BME280;40758;54.038;11.684;2022-11-15T06:52:48;101039.41;;;2.62;100.00
7297;BME280;40758;54.038;11.684;2022-11-15T06:55:21;101045.09;;;2.73;100.00
7297;BME280;40758;54.038;11.684;2022-11-15T06:57:52;101043.06;;;2.78;100.00
7297;BME280;40758;54.038;11.684;2022-11-15T07:00:22;101037.34;;;2.88;100.00
7297;BME280;40758;54.038;11.684;2022-11-15T07:02:51;101041.44;;;2.95;100.00
7297;BME280;40758;54.038;11.684;2022-11-15T07:05:20;101030.38;;;3.04;100.00
7297;BME280;40758;54.038;11.684;2022-11-15T07:07:54;101042.31;;;3.14;100.00
7297;BME280;40758;54.038;11.684;2022-11-15T07:10:25;101043.56;;;3.24;100.00
7297;BME280;40758;54.038;11.684;2022-11-15T07:12:56;101049.53;;;3.29;100.00
7297;BME280;40758;54.038;11.684;2022-11-15T07:15:27;101039.25;;;3.40;100.00
7297;BME280;40758;54.038;11.684;2022-11-15T07:18:01;101048.06;;;3.41;100.00
7297;BME280;40758;54.038;11.684;2022-11-15T07:20:31;101051.28;;;3.47;100.00
7297;BME280;40758;54.038;11.684;2022-11-15T07:23:03;101047.34;;;3.56;100.00
7297;BME280;40758;54.038;11.684;2022-11-15T07:25:32;101054.75;;;3.66;100.00
7297;BME280;40758;54.038;11.684;2022-11-15T07:28:05;101060.06;;;3.66;100.00
7297;BME280;40758;54.038;11.684;2022-11-15T07:30:34;101069.88;;;3.83;100.00
7297;BME280;40758;54.038;11.684;2022-11-15T07:33:11;101069.47;;;3.91;100.00
7297;BME280;40758;54.038;11.684;2022-11-15T07:35:45;101073.88;;;3.92;100.00
7297;BME280;40758;54.038;11.684;2022-11-15T07:38:18;101071.28;;;4.07;100.00
7297;BME280;40758;54.038;11.684;2022-11-15T07:40:58;101074.97;;;4.05;100.00
7297;BME280;40758;54.038;11.684;2022-11-15T07:43:28;101073.88;;;4.09;100.00
7297;BME280;40758;54.038;11.684;2022-11-15T07:45:58;101076.69;;;4.06;100.00
7297;BME280;40758;54.038;11.684;2022-11-15T07:48:30;101074.34;;;4.17;100.00
7297;BME280;40758;54.038;11.684;2022-11-15T07:51:12;101071.38;;;4.23;100.00
7297;BME280;40758;54.038;11.684;2022-11-15T07:53:43;101072.78;;;4.30;100.00
7297;BME280;40758;54.038;11.684;2022-11-15T07:56:13;101074.81;;;4.25;100.00
7297;BME280;40758;54.038;11.684;2022-11-15T07:58:42;101076.19;;;4.32;100.00
7297;BME280;40758;54.038;11.684;2022-11-15T08:01:11;101068.69;;;4.40;100.00
7297;BME280;40758;54.038;11.684;2022-11-15T08:03:41;101072.75;;;4.47;100.00
7297;BME280;40758;54.038;11.684;2022-11-15T08:06:09;101061.19;;;4.48;100.00
7297;BME280;40758;54.038;11.684;2022-11-15T08:08:38;101072.09;;;4.60;100.00
7297;BME280;40758;54.038;11.684;2022-11-15T08:11:09;101063.47;;;4.72;100.00
7297;BME280;40758;54.038;11.684;2022-11-15T08:13:40;101059.09;;;4.71;100.00
7297;BME280;40758;54.038;11.684;2022-11-15T08:16:10;101067.44;;;4.80;100.00
7297;BME280;40758;54.038;11.684;2022-11-15T08:18:39;101067.97;;;4.87;100.00
7297;BME280;40758;54.038;11.684;2022-11-15T08:21:10;101073.41;;;5.01;100.00
7297;BME280;40758;54.038;11.684;2022-11-15T08:23:45;101076.38;;;4.95;100.00
7297;BME280;40758;54.038;11.684;2022-11-15T08:26:16;101072.19;;;4.91;100.00
7297;BME280;40758;54.038;11.684;2022-11-15T08:28:45;101074.66;;;4.94;100.00
7297;BME280;40758;54.038;11.684;2022-11-15T08:31:17;101064.00;;;4.94;100.00
7297;BME280;40758;54.038;11.684;2022-11-15T08:33:46;101066.53;;;4.97;100.00
7297;BME280;40758;54.038;11.684;2022-11-15T08:36:17;101063.34;;;5.06;100.00
7297;BME280;40758;54.038;11.684;2022-11-15T08:38:47;101056.81;;;4.96;100.00
7297;BME280;40758;54.038;11.684;2022-11-15T08:41:25;101065.59;;;4.98;100.00
7297;BME280;40758;54.038;11.684;2022-11-15T08:43:55;101059.47;;;4.96;100.00
7297;BME280;40758;54.038;11.684;2022-11-15T08:46:25;101063.69;;;5.00;100.00
7297;BME280;40758;54.038;11.684;2022-11-15T08:48:56;101055.88;;;4.97;100.00
7297;BME280;40758;54.038;11.684;2022-11-15T08:51:25;101058.66;;;5.11;100.00
7297;BME280;40758;54.038;11.684;2022-11-15T08:53:56;101053.22;;;5.13;100.00
7297;BME280;40758;54.038;11.684;2022-11-15T08:56:28;101048.00;;;5.11;100.00
7297;BME280;40758;54.038;11.684;2022-11-15T08:58:57;101057.09;;;5.07;100.00
7297;BME280;40758;54.038;11.684;2022-11-15T09:01:26;101061.13;;;5.14;100.00
7297;BME280;40758;54.038;11.684;2022-11-15T09:03:57;101063.00;;;5.12;100.00
7297;BME280;40758;54.038;11.684;2022-11-15T09:06:27;101052.88;;;5.19;100.00
7297;BME280;40758;54.038;11.684;2022-11-15T09:09:00;101059.56;;;5.26;100.00
7297;BME280;40758;54.038;11.684;2022-11-15T09:11:31;101056.91;;;5.26;100.00
7297;BME280;40758;54.038;11.684;2022-11-15T09:14:01;101058.22;;;5.35;100.00
7297;BME280;40758;54.038;11.684;2022-11-15T09:16:33;101062.06;;;5.45;100.00
7297;BME280;40758;54.038;11.684;2022-11-15T09:19:02;101057.34;;;5.50;100.00
7297;BME280;40758;54.038;11.684;2022-11-15T09:21:38;101059.06;;;5.51;100.00
7297;BME280;40758;54.038;11.684;2022-11-15T09:24:07;101056.28;;;5.68;100.00
7297;BME280;40758;54.038;11.684;2022-11-15T09:26:37;101065.59;;;5.61;100.00
7297;BME280;40758;54.038;11.684;2022-11-15T09:29:07;101072.09;;;5.71;100.00
7297;BME280;40758;54.038;11.684;2022-11-15T09:31:36;101066.94;;;5.68;100.00
7297;BME280;40758;54.038;11.684;2022-11-15T09:34:05;101067.00;;;5.82;100.00
7297;BME280;40758;54.038;11.684;2022-11-15T09:36:35;101065.81;;;5.88;100.00
7297;BME280;40758;54.038;11.684;2022-11-15T09:39:04;101055.50;;;5.97;100.00
7297;BME280;40758;54.038;11.684;2022-11-15T09:42:14;101060.81;;;5.97;100.00
7297;BME280;40758;54.038;11.684;2022-11-15T09:45:10;101056.06;;;6.02;100.00
7297;BME280;40758;54.038;11.684;2022-11-15T09:48:07;101066.81;;;6.01;100.00
7297;BME280;40758;54.038;11.684;2022-11-15T09:50:45;101062.00;;;6.07;100.00
7297;BME280;40758;54.038;11.684;2022-11-15T09:53:29;101056.28;;;6.14;100.00
7297;BME280;40758;54.038;11.684;2022-11-15T09:56:26;101044.59;;;6.30;100.00
7297;BME280;40758;54.038;11.684;2022-11-15T10:02:19;101037.13;;;6.65;100.00
7297;BME280;40758;54.038;11.684;2022-11-15T10:04:53;101034.94;;;6.72;100.00
7297;BME280;40758;54.038;11.684;2022-11-15T10:07:28;101033.13;;;6.72;100.00
7297;BME280;40758;54.038;11.684;2022-11-15T10:10:15;101025.47;;;6.80;100.00
7297;BME280;40758;54.038;11.684;2022-11-15T10:12:50;101029.28;;;6.90;100.00
7297;BME280;40758;54.038;11.684;2022-11-15T10:15:22;101024.47;;;7.10;100.00
7297;BME280;40758;54.038;11.684;2022-11-15T10:18:16;101014.72;;;7.23;100.00
7297;BME280;40758;54.038;11.684;2022-11-15T10:20:50;101015.00;;;7.32;100.00
7297;BME280;40758;54.038;11.684;2022-11-15T10:23:23;101002.59;;;7.58;100.00
7297;BME280;40758;54.038;11.684;2022-11-15T10:25:55;101000.31;;;7.52;100.00
7297;BME280;40758;54.038;11.684;2022-11-15T10:28:33;100995.06;;;7.78;100.00
7297;BME280;40758;54.038;11.684;2022-11-15T10:31:22;100997.41;;;7.82;100.00
7297;BME280;40758;54.038;11.684;2022-11-15T10:34:09;100993.66;;;7.85;100.00
7297;BME280;40758;54.038;11.684;2022-11-15T10:36:45;100989.50;;;7.93;100.00
7297;BME280;40758;54.038;11.684;2022-11-15T10:39:17;100986.91;;;7.79;100.00
7297;BME280;40758;54.038;11.684;2022-11-15T10:41:45;100978.28;;;8.01;100.00
7297;BME280;40758;54.038;11.684;2022-11-15T10:44:25;100970.72;;;8.20;100.00
7297;BME280;40758;54.038;11.684;2022-11-15T10:47:25;100966.97;;;8.35;100.00
7297;BME280;40758;54.038;11.684;2022-11-15T10:50:02;100968.69;;;8.49;100.00
7297;BME280;40758;54.038;11.684;2022-11-15T10:52:36;100956.34;;;8.59;100.00
7297;BME280;40758;54.038;11.684;2022-11-15T10:55:25;100956.84;;;8.77;100.00
7297;BME280;40758;54.038;11.684;2022-11-15T10:58:01;100950.34;;;9.05;100.00
7297;BME280;40758;54.038;11.684;2022-11-15T11:00:36;100948.50;;;9.42;100.00
7297;BME280;40758;54.038;11.684;2022-11-15T11:03:29;100940.28;;;9.56;100.00
7297;BME280;40758;54.038;11.684;2022-11-15T11:06:09;100933.38;;;9.41;100.00
7297;BME280;40758;54.038;11.684;2022-11-15T11:08:40;100927.66;;;9.21;100.00
7297;BME280;40758;54.038;11.684;2022-11-15T11:11:21;100925.22;;;9.18;100.00
7297;BME280;40758;54.038;11.684;2022-11-15T11:13:50;100913.75;;;9.16;100.00
7297;BME280;40758;54.038;11.684;2022-11-15T11:16:47;100906.97;;;9.00;100.00
7297;BME280;40758;54.038;11.684;2022-11-15T11:19:53;100900.78;;;8.86;100.00
7297;BME280;40758;54.038;11.684;2022-11-15T11:22:34;100892.19;;;8.94;100.00
7297;BME280;40758;54.038;11.684;2022-11-15T11:25:29;100887.28;;;9.12;100.00
7297;BME280;40758;54.038;11.684;2022-11-15T11:28:25;100893.25;;;9.15;100.00
7297;BME280;40758;54.038;11.684;2022-11-15T11:31:14;100889.22;;;9.10;100.00
7297;BME280;40758;54.038;11.684;2022-11-15T11:34:00;100879.00;;;9.15;100.00
7297;BME280;40758;54.038;11.684;2022-11-15T11:36:42;100890.38;;;9.18;100.00
7297;BME280;40758;54.038;11.684;2022-11-15T11:39:24;100881.59;;;9.16;100.00
7297;BME280;40758;54.038;11.684;2022-11-15T11:42:10;100885.66;;;9.33;100.00
7297;BME280;40758;54.038;11.684;2022-11-15T11:44:56;100886.56;;;9.45;100.00
7297;BME280;40758;54.038;11.684;2022-11-15T11:47:35;100887.56;;;9.44;100.00
7297;BME280;40758;54.038;11.684;2022-11-15T11:50:15;100875.84;;;9.45;100.00
7297;BME280;40758;54.038;11.684;2022-11-15T11:52:57;100871.00;;;9.50;100.00
7297;BME280;40758;54.038;11.684;2022-11-15T11:55:36;100860.78;;;9.55;100.00
7297;BME280;40758;54.038;11.684;2022-11-15T11:58:17;100859.94;;;9.65;100.00
7297;BME280;40758;54.038;11.684;2022-11-15T12:00:55;100855.91;;;9.71;100.00
7297;BME280;40758;54.038;11.684;2022-11-15T12:03:30;100848.63;;;9.73;100.00
7297;BME280;40758;54.038;11.684;2022-11-15T12:06:14;100853.34;;;9.69;100.00
7297;BME280;40758;54.038;11.684;2022-11-15T12:08:53;100843.44;;;9.59;100.00
7297;BME280;40758;54.038;11.684;2022-11-15T12:11:32;100836.63;;;9.55;100.00
7297;BME280;40758;54.038;11.684;2022-11-15T12:14:11;100839.97;;;10.03;100.00
7297;BME280;40758;54.038;11.684;2022-11-15T12:16:43;100834.50;;;10.49;100.00
7297;BME280;40758;54.038;11.684;2022-11-15T12:19:15;100831.34;;;10.55;100.00
7297;BME280;40758;54.038;11.684;2022-11-15T12:21:50;100831.56;;;10.52;100.00
7297;BME280;40758;54.038;11.684;2022-11-15T12:24:28;100834.88;;;10.33;100.00
7297;BME280;40758;54.038;11.684;2022-11-15T12:27:06;100829.97;;;10.61;100.00
7297;BME280;40758;54.038;11.684;2022-11-15T12:29:44;100825.38;;;10.18;100.00
7297;BME280;40758;54.038;11.684;2022-11-15T12:32:26;100812.94;;;10.17;100.00
7297;BME280;40758;54.038;11.684;2022-11-15T12:35:00;100809.47;;;10.48;100.00
7297;BME280;40758;54.038;11.684;2022-11-15T12:37:51;100802.88;;;10.52;100.00
7297;BME280;40758;54.038;11.684;2022-11-15T12:40:31;100797.81;;;10.70;100.00
7297;BME280;40758;54.038;11.684;2022-11-15T12:43:38;100784.47;;;10.37;100.00
7297;BME280;40758;54.038;11.684;2022-11-15T12:46:23;100773.53;;;10.18;100.00
7297;BME280;40758;54.038;11.684;2022-11-15T12:49:45;100775.53;;;10.14;100.00
7297;BME280;40758;54.038;11.684;2022-11-15T12:52:16;100787.63;;;10.08;100.00
7297;BME280;40758;54.038;11.684;2022-11-15T12:55:08;100792.69;;;10.24;100.00
7297;BME280;40758;54.038;11.684;2022-11-15T12:57:54;100795.47;;;10.34;100.00
7297;BME280;40758;54.038;11.684;2022-11-15T13:00:44;100793.88;;;10.42;100.00
7297;BME280;40758;54.038;11.684;2022-11-15T13:03:32;100791.22;;;10.63;100.00
7297;BME280;40758;54.038;11.684;2022-11-15T13:06:08;100776.47;;;10.58;100.00
7297;BME280;40758;54.038;11.684;2022-11-15T13:08:48;100768.28;;;10.59;100.00
7297;BME280;40758;54.038;11.684;2022-11-15T13:11:47;100769.03;;;10.50;100.00
7297;BME280;40758;54.038;11.684;2022-11-15T13:14:48;100770.63;;;10.52;100.00
7297;BME280;40758;54.038;11.684;2022-11-15T13:17:32;100770.81;;;10.29;100.00
7297;BME280;40758;54.038;11.684;2022-11-15T13:20:23;100772.03;;;10.36;100.00
7297;BME280;40758;54.038;11.684;2022-11-15T13:23:07;100773.38;;;10.30;100.00
7297;BME280;40758;54.038;11.684;2022-11-15T13:26:13;100768.34;;;10.14;100.00
7297;BME280;40758;54.038;11.684;2022-11-15T13:28:46;100767.25;;;9.95;100.00
7297;BME280;40758;54.038;11.684;2022-11-15T13:31:35;100767.16;;;9.96;100.00
7297;BME280;40758;54.038;11.684;2022-11-15T13:34:23;100763.72;;;9.83;100.00
7297;BME280;40758;54.038;11.684;2022-11-15T13:37:28;100773.22;;;9.43;100.00
7297;BME280;40758;54.038;11.684;2022-11-15T13:40:20;100776.13;;;9.40;100.00